createdAt,value
2019-05-14T00:00:54.371Z,1026.04
2019-05-14T00:02:03.301Z,1026.08
2019-05-14T00:03:08.212Z,1026.08
2019-05-14T00:04:19.375Z,1026.08
2019-05-14T00:05:12.097Z,1026.07
2019-05-14T00:06:24.403Z,1026.08
2019-05-14T00:07:29.437Z,1026.11
2019-05-14T00:08:34.248Z,1026.08
2019-05-14T00:09:41.406Z,1026.09
2019-05-14T00:10:43.590Z,1026.09
2019-05-14T00:11:51.078Z,1026.13
2019-05-14T00:12:51.178Z,1026.10
2019-05-14T00:14:03.466Z,1026.07
2019-05-14T00:15:11.059Z,1026.05
2019-05-14T00:16:14.952Z,1026.00
2019-05-14T00:17:26.221Z,1026.01
2019-05-14T00:18:22.334Z,1025.99
2019-05-14T00:19:24.912Z,1025.97
2019-05-14T00:20:33.002Z,1025.98
2019-05-14T00:21:44.990Z,1025.96
2019-05-14T00:22:42.957Z,1025.93
2019-05-14T00:23:51.320Z,1025.94
2019-05-14T00:24:52.691Z,1025.92
2019-05-14T00:26:02.007Z,1025.91
2019-05-14T00:27:03.256Z,1025.91
2019-05-14T00:28:07.353Z,1025.91
2019-05-14T00:29:21.980Z,1025.93
2019-05-14T00:30:22.726Z,1025.94
2019-05-14T00:31:35.227Z,1025.91
2019-05-14T00:32:24.378Z,1025.88
2019-05-14T00:33:41.743Z,1025.94
2019-05-14T00:34:38.630Z,1025.97
2019-05-14T00:35:51.519Z,1025.90
2019-05-14T00:36:48.676Z,1025.92
2019-05-14T00:38:05.374Z,1025.92
2019-05-14T00:39:11.190Z,1025.97
2019-05-14T00:40:17.753Z,1025.90
2019-05-14T00:41:21.417Z,1025.96
2019-05-14T00:42:28.850Z,1025.94
2019-05-14T00:43:34.593Z,1025.96
2019-05-14T00:44:33.676Z,1025.97
2019-05-14T00:45:42.803Z,1026.00
2019-05-14T00:46:51.559Z,1026.04
2019-05-14T00:47:57.661Z,1026.05
2019-05-14T00:48:53.569Z,1026.05
2019-05-14T00:50:11.197Z,1026.11
2019-05-14T00:51:18.469Z,1026.14
2019-05-14T00:52:11.645Z,1026.08
2019-05-14T00:53:24.636Z,1026.12
2019-05-14T00:54:41.410Z,1026.08
2019-05-14T00:55:44.097Z,1026.09
2019-05-14T00:56:57.722Z,1026.07
2019-05-14T00:57:42.428Z,1026.12
2019-05-14T00:58:54.358Z,1026.07
2019-05-14T00:59:52.348Z,1026.05
2019-05-14T01:00:52.436Z,1026.06
2019-05-14T01:02:02.622Z,1026.07
2019-05-14T01:03:11.189Z,1026.02
2019-05-14T01:04:18.356Z,1025.99
2019-05-14T01:05:32.096Z,1025.97
2019-05-14T01:06:47.555Z,1025.94
2019-05-14T01:07:37.009Z,1025.95
2019-05-14T01:08:31.870Z,1025.93
2019-05-14T01:09:52.278Z,1025.93
2019-05-14T01:10:47.377Z,1025.92
2019-05-14T01:11:46.257Z,1025.95
2019-05-14T01:12:58.035Z,1025.94
2019-05-14T01:14:15.555Z,1025.95
2019-05-14T01:15:14.119Z,1025.92
2019-05-14T01:16:13.622Z,1025.94
2019-05-14T01:17:19.875Z,1025.91
2019-05-14T01:18:44.697Z,1025.89
2019-05-14T01:19:42.211Z,1025.92
2019-05-14T01:20:46.320Z,1025.89
2019-05-14T01:21:46.627Z,1025.82
2019-05-14T01:23:06.914Z,1025.82
2019-05-14T01:23:44.185Z,1025.82
2019-05-14T01:24:55.557Z,1025.76
2019-05-14T01:25:57.508Z,1025.78
2019-05-14T01:27:13.902Z,1025.76
2019-05-14T01:28:27.254Z,1025.72
2019-05-14T01:29:18.522Z,1025.72
2019-05-14T01:30:33.276Z,1025.72
2019-05-14T01:31:45.980Z,1025.68
2019-05-14T01:32:51.216Z,1025.68
2019-05-14T01:33:48.455Z,1025.64
2019-05-14T01:34:51.963Z,1025.69
2019-05-14T01:35:58.909Z,1025.66
2019-05-14T01:36:52.901Z,1025.65
2019-05-14T01:38:06.094Z,1025.65
2019-05-14T01:39:25.967Z,1025.67
2019-05-14T01:40:22.600Z,1025.62
2019-05-14T01:41:13.793Z,1025.62
2019-05-14T01:42:41.899Z,1025.60
2019-05-14T01:43:25.995Z,1025.60
2019-05-14T01:44:51.929Z,1025.62
2019-05-14T01:46:07.785Z,1025.65
2019-05-14T01:47:01.871Z,1025.63
2019-05-14T01:47:51.878Z,1025.62
2019-05-14T01:49:22.559Z,1025.58
2019-05-14T01:49:58.496Z,1025.57
2019-05-14T01:51:37.418Z,1025.57
2019-05-14T01:52:26.063Z,1025.57
2019-05-14T01:53:41.583Z,1025.62
2019-05-14T01:54:47.981Z,1025.57
2019-05-14T01:55:35.029Z,1025.56
2019-05-14T01:57:02.108Z,1025.54
2019-05-14T01:57:45.547Z,1025.48
2019-05-14T01:59:04.495Z,1025.45
2019-05-14T02:00:02.269Z,1025.47
2019-05-14T02:01:24.579Z,1025.40
2019-05-14T02:02:22.950Z,1025.41
2019-05-14T02:03:40.953Z,1025.36
2019-05-14T02:04:24.087Z,1025.34
2019-05-14T02:05:39.045Z,1025.33
2019-05-14T02:06:28.513Z,1025.28
2019-05-14T02:07:39.061Z,1025.27
2019-05-14T02:08:41.291Z,1025.26
2019-05-14T02:10:01.911Z,1025.29
2019-05-14T02:11:12.009Z,1025.31
2019-05-14T02:12:38.275Z,1025.35
2019-05-14T02:13:41.355Z,1025.33
2019-05-14T02:14:35.048Z,1025.36
2019-05-14T02:15:42.907Z,1025.37
2019-05-14T02:16:57.556Z,1025.34
2019-05-14T02:17:47.321Z,1025.37
2019-05-14T02:18:37.086Z,1025.32
2019-05-14T02:20:52.210Z,1025.32
2019-05-14T02:22:41.729Z,1025.38
2019-05-14T02:23:34.739Z,1025.28
2019-05-14T02:24:48.905Z,1025.27
2019-05-14T02:25:31.790Z,1025.20
2019-05-14T02:26:52.706Z,1025.17
2019-05-14T02:27:37.459Z,1025.18
2019-05-14T02:28:52.001Z,1025.19
2019-05-14T02:29:53.240Z,1025.19
2019-05-14T02:30:56.404Z,1025.23
2019-05-14T02:32:40.275Z,1025.19
2019-05-14T02:34:19.705Z,1025.18
2019-05-14T02:34:45.593Z,1025.13
2019-05-14T02:35:55.430Z,1025.11
2019-05-14T02:37:52.788Z,1025.14
2019-05-14T02:38:29.622Z,1025.11
2019-05-14T02:39:53.009Z,1025.16
2019-05-14T02:40:25.484Z,1025.13
2019-05-14T02:41:34.696Z,1025.15
2019-05-14T02:42:40.534Z,1025.14
2019-05-14T02:44:30.807Z,1025.10
2019-05-14T02:45:45.031Z,1025.12
2019-05-14T02:46:21.418Z,1025.10
2019-05-14T02:47:24.082Z,1025.13
2019-05-14T02:49:31.267Z,1025.08
2019-05-14T02:50:50.226Z,1025.11
2019-05-14T02:52:12.749Z,1025.14
2019-05-14T02:52:49.920Z,1025.15
2019-05-14T02:54:02.843Z,1025.07
2019-05-14T02:54:59.647Z,1025.07
2019-05-14T02:55:59.715Z,1025.08
2019-05-14T02:57:30.624Z,1025.10
2019-05-14T02:58:09.739Z,1025.09
2019-05-14T02:59:50.046Z,1025.10
2019-05-14T03:00:40.630Z,1025.08
2019-05-14T03:01:45.372Z,1025.09
2019-05-14T03:02:43.947Z,1025.08
2019-05-14T03:03:49.274Z,1025.14
2019-05-14T03:05:09.889Z,1025.14
2019-05-14T03:06:22.159Z,1025.15
2019-05-14T03:07:02.001Z,1025.11
2019-05-14T03:08:19.709Z,1025.10
2019-05-14T03:09:16.116Z,1025.10
2019-05-14T03:10:24.747Z,1025.12
2019-05-14T03:11:09.350Z,1025.16
2019-05-14T03:12:43.811Z,1025.21
2019-05-14T03:13:49.391Z,1025.19
2019-05-14T03:14:30.807Z,1025.25
2019-05-14T03:15:34.826Z,1025.25
2019-05-14T03:16:52.640Z,1025.26
2019-05-14T03:18:03.504Z,1025.30
2019-05-14T03:19:10.472Z,1025.31
2019-05-14T03:20:19.517Z,1025.34
2019-05-14T03:21:39.434Z,1025.34
2019-05-14T03:22:25.831Z,1025.35
2019-05-14T03:23:05.034Z,1025.34
2019-05-14T03:24:44.197Z,1025.33
2019-05-14T03:25:39.883Z,1025.33
2019-05-14T03:26:35.213Z,1025.36
2019-05-14T03:28:02.136Z,1025.34
2019-05-14T03:28:59.930Z,1025.32
2019-05-14T03:30:11.505Z,1025.33
2019-05-14T03:31:04.393Z,1025.29
2019-05-14T03:32:02.518Z,1025.30
2019-05-14T03:33:21.817Z,1025.29
2019-05-14T03:34:22.645Z,1025.28
2019-05-14T03:35:23.468Z,1025.26
2019-05-14T03:36:42.650Z,1025.24
2019-05-14T03:37:24.181Z,1025.20
2019-05-14T03:38:51.874Z,1025.22
2019-05-14T03:39:59.370Z,1025.22
2019-05-14T03:40:53.933Z,1025.20
2019-05-14T03:41:55.274Z,1025.17
2019-05-14T03:43:01.318Z,1025.16
2019-05-14T03:44:05.423Z,1025.15
2019-05-14T03:45:13.008Z,1025.13
2019-05-14T03:46:09.597Z,1025.11
2019-05-14T03:47:20.086Z,1025.13
2019-05-14T03:48:23.373Z,1025.13
2019-05-14T03:49:40.143Z,1025.14
2019-05-14T03:50:34.345Z,1025.15
2019-05-14T03:51:50.953Z,1025.15
2019-05-14T03:52:59.109Z,1025.17
2019-05-14T03:54:12.119Z,1025.18
2019-05-14T03:55:19.912Z,1025.20
2019-05-14T03:56:11.760Z,1025.17
2019-05-14T03:57:19.932Z,1025.16
2019-05-14T03:58:29.834Z,1025.16
2019-05-14T03:59:29.065Z,1025.14
2019-05-14T04:00:39.015Z,1025.18
2019-05-14T04:01:39.928Z,1025.13
2019-05-14T04:02:39.543Z,1025.13
2019-05-14T04:04:01.771Z,1025.10
2019-05-14T04:04:49.810Z,1025.06
2019-05-14T04:06:10.590Z,1025.09
2019-05-14T04:07:03.127Z,1025.06
2019-05-14T04:08:21.581Z,1025.11
2019-05-14T04:09:12.048Z,1025.14
2019-05-14T04:10:19.073Z,1025.11
2019-05-14T04:11:33.871Z,1025.15
2019-05-14T04:12:33.476Z,1025.13
2019-05-14T04:13:31.220Z,1025.16
2019-05-14T04:14:51.716Z,1025.12
2019-05-14T04:15:42.704Z,1025.12
2019-05-14T04:16:58.518Z,1025.17
2019-05-14T04:17:53.579Z,1025.14
2019-05-14T04:19:18.970Z,1025.09
2019-05-14T04:20:09.307Z,1025.09
2019-05-14T04:21:14.377Z,1025.06
2019-05-14T04:22:00.360Z,1025.03
2019-05-14T04:23:28.890Z,1025.04
2019-05-14T04:24:36.434Z,1025.05
2019-05-14T04:25:29.547Z,1025.02
2019-05-14T04:26:30.472Z,1025.03
2019-05-14T04:27:50.373Z,1025.04
2019-05-14T04:28:55.088Z,1025.04
2019-05-14T04:29:45.871Z,1025.03
2019-05-14T04:30:59.545Z,1025.04
2019-05-14T04:32:03.989Z,1025.05
2019-05-14T04:33:10.498Z,1025.08
2019-05-14T04:34:21.740Z,1025.10
2019-05-14T04:35:30.657Z,1025.07
2019-05-14T04:36:33.539Z,1025.12
2019-05-14T04:37:28.889Z,1025.12
2019-05-14T04:38:40.916Z,1025.11
2019-05-14T04:39:50.223Z,1025.08
2019-05-14T04:40:45.334Z,1025.06
2019-05-14T04:41:55.272Z,1025.03
2019-05-14T04:43:03.579Z,1025.02
2019-05-14T04:44:05.423Z,1025.01
2019-05-14T04:45:10.743Z,1025.01
2019-05-14T04:46:09.988Z,1024.98
2019-05-14T04:47:25.209Z,1025.00
2019-05-14T04:48:32.343Z,1025.03
2019-05-14T04:49:45.301Z,1025.04
2019-05-14T04:50:50.028Z,1025.01
2019-05-14T04:51:30.225Z,1025.04
2019-05-14T04:52:49.051Z,1024.99
2019-05-14T04:53:55.565Z,1025.01
2019-05-14T04:54:59.282Z,1024.99
2019-05-14T04:56:25.478Z,1024.95
2019-05-14T04:57:30.421Z,1024.98
2019-05-14T04:58:29.916Z,1025.00
2019-05-14T04:59:39.558Z,1025.00
2019-05-14T05:00:39.323Z,1025.00
2019-05-14T05:01:42.306Z,1024.98
2019-05-14T05:03:12.620Z,1024.96
2019-05-14T05:04:14.059Z,1024.98
2019-05-14T05:05:00.042Z,1024.99
2019-05-14T05:05:55.445Z,1024.96
2019-05-14T05:07:29.673Z,1024.97
2019-05-14T05:08:14.192Z,1025.02
2019-05-14T05:09:35.803Z,1024.98
2019-05-14T05:10:25.670Z,1025.02
2019-05-14T05:11:49.677Z,1025.03
2019-05-14T05:12:43.368Z,1025.05
2019-05-14T05:13:45.148Z,1025.06
2019-05-14T05:14:58.569Z,1025.08
2019-05-14T05:16:11.488Z,1025.08
2019-05-14T05:17:10.567Z,1025.07
2019-05-14T05:18:32.384Z,1025.07
2019-05-14T05:19:30.953Z,1025.08
2019-05-14T05:20:29.481Z,1025.04
2019-05-14T05:21:19.193Z,1025.02
2019-05-14T05:22:48.894Z,1025.04
2019-05-14T05:23:38.033Z,1024.99
2019-05-14T05:24:48.454Z,1024.97
2019-05-14T05:25:45.439Z,1025.01
2019-05-14T05:27:29.789Z,1024.96
2019-05-14T05:28:34.912Z,1024.96
2019-05-14T05:29:30.822Z,1024.97
2019-05-14T05:31:32.779Z,1024.93
2019-05-14T05:32:30.739Z,1024.92
2019-05-14T05:33:34.804Z,1024.88
2019-05-14T05:34:45.188Z,1024.87
2019-05-14T05:35:49.500Z,1024.86
2019-05-14T05:36:35.120Z,1024.87
2019-05-14T05:37:50.845Z,1024.88
2019-05-14T05:39:12.153Z,1024.84
2019-05-14T05:40:03.351Z,1024.92
2019-05-14T05:43:09.218Z,1024.90
2019-05-14T05:44:00.200Z,1024.89
2019-05-14T05:45:12.806Z,1024.92
2019-05-14T05:46:18.878Z,1024.88
2019-05-14T05:47:36.070Z,1024.84
2019-05-14T05:48:20.842Z,1024.84
2019-05-14T05:49:53.894Z,1024.83
2019-05-14T05:50:53.597Z,1024.78
2019-05-14T05:51:39.572Z,1024.84
2019-05-14T05:53:20.443Z,1024.82
2019-05-14T05:54:05.695Z,1024.82
2019-05-14T05:55:08.841Z,1024.83
2019-05-14T05:56:04.792Z,1024.83
2019-05-14T05:57:18.667Z,1024.82
2019-05-14T05:58:30.179Z,1024.82
2019-05-14T05:59:39.294Z,1024.84
2019-05-14T06:00:20.795Z,1024.87
2019-05-14T06:01:45.714Z,1024.85
2019-05-14T06:02:59.032Z,1024.83
2019-05-14T06:03:42.318Z,1024.85
2019-05-14T06:05:02.190Z,1024.85
2019-05-14T06:05:59.257Z,1024.83
2019-05-14T06:07:03.434Z,1024.82
2019-05-14T06:08:39.020Z,1024.82
2019-05-14T06:09:29.761Z,1024.79
2019-05-14T06:10:13.998Z,1024.80
2019-05-14T06:11:38.132Z,1024.79
2019-05-14T06:12:49.015Z,1024.81
2019-05-14T06:13:39.878Z,1024.79
2019-05-14T06:14:34.404Z,1024.76
2019-05-14T06:16:12.814Z,1024.79
2019-05-14T06:16:48.666Z,1024.74
2019-05-14T06:18:18.347Z,1024.77
2019-05-14T06:19:04.845Z,1024.79
2019-05-14T06:20:18.880Z,1024.77
2019-05-14T06:21:28.994Z,1024.76
2019-05-14T06:22:32.720Z,1024.70
2019-05-14T06:23:38.483Z,1024.74
2019-05-14T06:24:40.324Z,1024.72
2019-05-14T06:25:40.628Z,1024.73
2019-05-14T06:27:05.106Z,1024.73
2019-05-14T06:27:40.535Z,1024.74
2019-05-14T06:29:02.457Z,1024.75
2019-05-14T06:30:09.218Z,1024.74
2019-05-14T06:31:19.491Z,1024.79
2019-05-14T06:32:12.010Z,1024.75
2019-05-14T06:33:23.885Z,1024.78
2019-05-14T06:34:29.264Z,1024.78
2019-05-14T06:35:39.484Z,1024.74
2019-05-14T06:36:29.290Z,1024.71
2019-05-14T06:37:33.643Z,1024.71
2019-05-14T06:38:42.251Z,1024.71
2019-05-14T06:39:48.311Z,1024.65
2019-05-14T06:40:55.780Z,1024.68
2019-05-14T06:42:03.681Z,1024.66
2019-05-14T06:42:52.847Z,1024.63
2019-05-14T06:44:19.046Z,1024.63
2019-05-14T06:45:03.598Z,1024.59
2019-05-14T06:46:18.998Z,1024.59
2019-05-14T06:47:29.307Z,1024.61
2019-05-14T06:48:29.907Z,1024.58
2019-05-14T06:49:44.280Z,1024.62
2019-05-14T06:50:50.208Z,1024.60
2019-05-14T06:51:55.345Z,1024.58
2019-05-14T06:52:58.086Z,1024.64
2019-05-14T06:53:59.862Z,1024.61
2019-05-14T06:55:05.095Z,1024.55
2019-05-14T06:56:08.329Z,1024.55
2019-05-14T06:57:18.314Z,1024.60
2019-05-14T06:58:09.210Z,1024.58
2019-05-14T06:59:28.690Z,1024.58
2019-05-14T07:00:29.680Z,1024.56
2019-05-14T07:01:32.169Z,1024.58
2019-05-14T07:02:43.274Z,1024.61
2019-05-14T07:03:48.859Z,1024.56
2019-05-14T07:04:58.904Z,1024.60
2019-05-14T07:05:55.235Z,1024.60
2019-05-14T07:07:04.877Z,1024.56
2019-05-14T07:08:18.736Z,1024.57
2019-05-14T07:09:14.037Z,1024.56
2019-05-14T07:10:22.407Z,1024.54
2019-05-14T07:11:25.272Z,1024.57
2019-05-14T07:12:38.619Z,1024.55
2019-05-14T07:13:33.629Z,1024.54
2019-05-14T07:14:38.773Z,1024.52
2019-05-14T07:15:58.183Z,1024.54
2019-05-14T07:16:48.858Z,1024.50
2019-05-14T07:17:52.043Z,1024.47
2019-05-14T07:19:03.425Z,1024.49
2019-05-14T07:20:10.792Z,1024.50
2019-05-14T07:21:14.999Z,1024.49
2019-05-14T07:22:19.450Z,1024.50
2019-05-14T07:23:22.078Z,1024.48
2019-05-14T07:24:28.216Z,1024.48
2019-05-14T07:25:34.890Z,1024.51
2019-05-14T07:26:42.793Z,1024.48
2019-05-14T07:27:41.971Z,1024.49
2019-05-14T07:28:48.662Z,1024.46
2019-05-14T07:29:53.871Z,1024.49
2019-05-14T07:31:00.324Z,1024.52
2019-05-14T07:32:01.967Z,1024.50
2019-05-14T07:33:10.069Z,1024.50
2019-05-14T07:34:19.603Z,1024.50
2019-05-14T07:35:28.759Z,1024.50
2019-05-14T07:36:29.059Z,1024.52
2019-05-14T07:37:33.337Z,1024.52
2019-05-14T07:38:41.537Z,1024.54
2019-05-14T07:39:45.125Z,1024.54
2019-05-14T07:40:51.280Z,1024.47
2019-05-14T07:41:52.820Z,1024.45
2019-05-14T07:43:08.936Z,1024.46
2019-05-14T07:44:09.935Z,1024.42
2019-05-14T07:45:13.114Z,1024.45
2019-05-14T07:46:20.293Z,1024.43
2019-05-14T07:47:19.579Z,1024.41
2019-05-14T07:48:28.664Z,1024.43
2019-05-14T07:49:39.152Z,1024.44
2019-05-14T07:50:42.949Z,1024.38
2019-05-14T07:51:53.924Z,1024.39
2019-05-14T07:52:58.625Z,1024.40
2019-05-14T07:54:03.656Z,1024.41
2019-05-14T07:55:09.100Z,1024.37
2019-05-14T07:56:20.257Z,1024.35
2019-05-14T07:57:18.941Z,1024.42
2019-05-14T07:58:14.747Z,1024.37
2019-05-14T07:59:37.693Z,1024.35
2019-05-14T08:00:29.632Z,1024.36
2019-05-14T08:01:40.675Z,1024.39
2019-05-14T08:02:39.422Z,1024.34
2019-05-14T08:03:55.225Z,1024.39
2019-05-14T08:04:43.865Z,1024.36
2019-05-14T08:05:53.704Z,1024.39
2019-05-14T08:07:03.956Z,1024.38
2019-05-14T08:08:00.989Z,1024.37
2019-05-14T08:09:14.921Z,1024.37
2019-05-14T08:10:14.828Z,1024.34
2019-05-14T08:11:25.275Z,1024.37
2019-05-14T08:12:33.577Z,1024.35
2019-05-14T08:13:35.536Z,1024.39
2019-05-14T08:14:57.638Z,1024.35
2019-05-14T08:15:48.840Z,1024.33
2019-05-14T08:16:59.327Z,1024.30
2019-05-14T08:17:55.936Z,1024.29
2019-05-14T08:19:04.822Z,1024.27
2019-05-14T08:20:13.772Z,1024.28
2019-05-14T08:21:04.965Z,1024.28
2019-05-14T08:22:18.557Z,1024.22
2019-05-14T08:23:24.541Z,1024.29
2019-05-14T08:24:29.545Z,1024.29
2019-05-14T08:25:47.910Z,1024.27
2019-05-14T08:26:42.851Z,1024.27
2019-05-14T08:27:42.896Z,1024.23
2019-05-14T08:28:50.581Z,1024.29
2019-05-14T08:29:44.444Z,1024.33
2019-05-14T08:30:58.501Z,1024.34
2019-05-14T08:32:01.867Z,1024.32
2019-05-14T08:33:11.090Z,1024.39
2019-05-14T08:34:19.115Z,1024.37
2019-05-14T08:35:33.958Z,1024.40
2019-05-14T08:36:22.373Z,1024.43
2019-05-14T08:37:33.848Z,1024.42
2019-05-14T08:38:40.617Z,1024.36
2019-05-14T08:39:56.377Z,1024.42
2019-05-14T08:40:54.758Z,1024.39
2019-05-14T08:42:03.825Z,1024.36
2019-05-14T08:43:05.218Z,1024.34
2019-05-14T08:44:14.543Z,1024.31
2019-05-14T08:45:09.428Z,1024.33
2019-05-14T08:46:24.601Z,1024.32
2019-05-14T08:47:29.100Z,1024.37
2019-05-14T08:48:23.482Z,1024.34
2019-05-14T08:49:39.003Z,1024.35
2019-05-14T08:50:45.203Z,1024.30
2019-05-14T08:51:45.315Z,1024.37
2019-05-14T08:52:58.135Z,1024.36
2019-05-14T08:53:55.469Z,1024.34
2019-05-14T08:55:09.179Z,1024.26
2019-05-14T08:56:12.550Z,1024.26
2019-05-14T08:57:18.860Z,1024.24
2019-05-14T08:58:15.630Z,1024.18
2019-05-14T08:59:21.507Z,1024.15
2019-05-14T09:00:38.386Z,1024.09
2019-05-14T09:01:33.196Z,1024.03
2019-05-14T09:02:43.605Z,1023.95
2019-05-14T09:03:49.018Z,1023.92
2019-05-14T09:04:52.594Z,1023.98
2019-05-14T09:06:10.188Z,1024.00
2019-05-14T09:07:23.825Z,1023.97
2019-05-14T09:08:08.739Z,1023.99
2019-05-14T09:09:22.158Z,1023.95
2019-05-14T09:10:16.064Z,1023.90
2019-05-14T09:11:43.974Z,1023.85
2019-05-14T09:12:28.255Z,1023.86
2019-05-14T09:13:39.741Z,1023.85
2019-05-14T09:14:40.862Z,1023.78
2019-05-14T09:15:45.281Z,1023.80
2019-05-14T09:16:51.334Z,1023.78
2019-05-14T09:18:03.165Z,1023.79
2019-05-14T09:19:08.687Z,1023.76
2019-05-14T09:20:11.323Z,1023.83
2019-05-14T09:21:21.457Z,1023.76
2019-05-14T09:22:23.710Z,1023.74
2019-05-14T09:23:28.513Z,1023.64
2019-05-14T09:24:32.336Z,1023.66
2019-05-14T09:25:48.679Z,1023.71
2019-05-14T09:26:52.309Z,1023.79
2019-05-14T09:28:28.427Z,1023.72
2019-05-14T09:29:16.976Z,1023.73
2019-05-14T09:30:28.910Z,1023.75
2019-05-14T09:31:25.416Z,1023.75
2019-05-14T09:32:18.656Z,1023.76
2019-05-14T09:33:24.441Z,1023.80
2019-05-14T09:34:33.510Z,1023.81
2019-05-14T09:36:07.763Z,1023.84
2019-05-14T09:36:48.707Z,1023.77
2019-05-14T09:37:44.300Z,1023.77
2019-05-14T09:38:58.201Z,1023.78
2019-05-14T09:40:19.825Z,1023.71
2019-05-14T09:41:08.143Z,1023.73
2019-05-14T09:42:03.578Z,1023.75
2019-05-14T09:43:10.453Z,1023.73
2019-05-14T09:44:22.942Z,1023.71
2019-05-14T09:45:34.214Z,1023.73
2019-05-14T09:46:24.182Z,1023.71
2019-05-14T09:47:30.249Z,1023.69
2019-05-14T09:48:48.376Z,1023.77
2019-05-14T09:49:53.494Z,1023.75
2019-05-14T09:50:48.852Z,1023.72
2019-05-14T09:51:50.332Z,1023.65
2019-05-14T09:53:09.463Z,1023.62
2019-05-14T09:54:15.328Z,1023.73
2019-05-14T09:55:20.640Z,1023.67
2019-05-14T09:56:11.660Z,1023.64
2019-05-14T09:57:11.667Z,1023.62
2019-05-14T09:58:28.129Z,1023.62
2019-05-14T09:59:33.285Z,1023.66
2019-05-14T10:00:49.987Z,1023.64
2019-05-14T10:01:39.804Z,1023.60
2019-05-14T10:02:48.860Z,1023.65
2019-05-14T10:03:51.443Z,1023.60
2019-05-14T10:04:50.788Z,1023.65
2019-05-14T10:06:00.563Z,1023.61
2019-05-14T10:07:08.617Z,1023.69
2019-05-14T10:08:15.223Z,1023.62
2019-05-14T10:09:17.805Z,1023.63
2019-05-14T10:10:30.267Z,1023.63
2019-05-14T10:11:29.475Z,1023.65
2019-05-14T10:12:52.439Z,1023.63
2019-05-14T10:13:48.307Z,1023.70
2019-05-14T10:14:39.206Z,1023.74
2019-05-14T10:15:59.304Z,1023.72
2019-05-14T10:16:53.583Z,1023.74
2019-05-14T10:18:01.605Z,1023.71
2019-05-14T10:19:11.510Z,1023.70
2019-05-14T10:20:36.578Z,1023.72
2019-05-14T10:21:20.227Z,1023.75
2019-05-14T10:22:34.878Z,1023.77
2019-05-14T10:23:38.948Z,1023.75
2019-05-14T10:24:32.333Z,1023.75
2019-05-14T10:25:42.231Z,1023.72
2019-05-14T10:26:44.837Z,1023.69
2019-05-14T10:27:58.945Z,1023.65
2019-05-14T10:28:58.940Z,1023.60
2019-05-14T10:30:18.079Z,1023.62
2019-05-14T10:31:09.414Z,1023.59
2019-05-14T10:32:22.655Z,1023.61
2019-05-14T10:33:24.813Z,1023.59
2019-05-14T10:34:30.872Z,1023.54
2019-05-14T10:35:43.468Z,1023.53
2019-05-14T10:36:48.770Z,1023.52
2019-05-14T10:37:54.361Z,1023.52
2019-05-14T10:38:46.967Z,1023.53
2019-05-14T10:39:49.980Z,1023.56
2019-05-14T10:41:02.955Z,1023.51
2019-05-14T10:42:03.686Z,1023.42
2019-05-14T10:43:13.464Z,1023.34
2019-05-14T10:44:25.505Z,1023.28
2019-05-14T10:45:38.269Z,1023.23
2019-05-14T10:46:33.815Z,1023.19
2019-05-14T10:47:29.137Z,1023.22
2019-05-14T10:48:39.778Z,1023.20
2019-05-14T10:49:44.791Z,1023.19
2019-05-14T10:50:56.181Z,1023.14
2019-05-14T10:51:58.532Z,1023.12
2019-05-14T10:52:59.607Z,1023.07
2019-05-14T10:54:18.818Z,1023.07
2019-05-14T10:55:20.665Z,1023.09
2019-05-14T10:56:19.003Z,1023.11
2019-05-14T10:57:33.897Z,1023.09
2019-05-14T10:58:35.024Z,1023.08
2019-05-14T10:59:50.084Z,1023.09
2019-05-14T11:00:42.189Z,1023.07
2019-05-14T11:01:54.659Z,1023.02
2019-05-14T11:02:50.716Z,1023.00
2019-05-14T11:04:09.582Z,1022.96
2019-05-14T11:05:00.458Z,1022.98
2019-05-14T11:06:05.897Z,1022.94
2019-05-14T11:07:18.633Z,1022.92
2019-05-14T11:08:23.007Z,1023.02
2019-05-14T11:09:37.897Z,1022.98
2019-05-14T11:10:29.699Z,1022.96
2019-05-14T11:11:30.100Z,1022.96
2019-05-14T11:12:41.057Z,1023.00
2019-05-14T11:13:57.858Z,1022.95
2019-05-14T11:14:53.846Z,1022.90
2019-05-14T11:15:55.625Z,1022.93
2019-05-14T11:16:59.821Z,1022.89
2019-05-14T11:18:12.229Z,1022.86
2019-05-14T11:19:09.976Z,1022.86
2019-05-14T11:20:12.031Z,1022.88
2019-05-14T11:21:39.100Z,1022.89
2019-05-14T11:22:37.961Z,1022.89
2019-05-14T11:23:38.598Z,1022.85
2019-05-14T11:24:45.235Z,1022.76
2019-05-14T11:25:48.879Z,1022.76
2019-05-14T11:27:04.923Z,1022.80
2019-05-14T11:28:01.435Z,1022.75
2019-05-14T11:29:11.376Z,1022.74
2019-05-14T11:30:20.196Z,1022.73
2019-05-14T11:31:13.442Z,1022.68
2019-05-14T11:32:41.194Z,1022.68
2019-05-14T11:33:30.548Z,1022.71
2019-05-14T11:35:19.090Z,1022.66
2019-05-14T11:36:21.265Z,1022.67
2019-05-14T11:37:19.008Z,1022.60
2019-05-14T11:38:36.653Z,1022.61
2019-05-14T11:39:09.239Z,1022.53
2019-05-14T11:40:21.484Z,1022.49
2019-05-14T11:41:23.885Z,1022.59
2019-05-14T11:42:34.303Z,1022.53
2019-05-14T11:43:17.927Z,1022.59
2019-05-14T11:44:35.234Z,1022.48
2019-05-14T11:45:34.317Z,1022.48
2019-05-14T11:46:57.394Z,1022.40
2019-05-14T11:47:48.661Z,1022.38
2019-05-14T11:48:50.323Z,1022.47
2019-05-14T11:49:52.304Z,1022.52
2019-05-14T11:51:04.258Z,1022.49
2019-05-14T11:52:07.700Z,1022.46
2019-05-14T11:53:10.105Z,1022.48
2019-05-14T11:54:22.765Z,1022.49
2019-05-14T11:55:20.052Z,1022.47
2019-05-14T11:56:24.640Z,1022.44
2019-05-14T11:57:27.438Z,1022.40
2019-05-14T11:58:32.468Z,1022.37
2019-05-14T11:59:47.525Z,1022.39
2019-05-14T12:00:52.549Z,1022.31
2019-05-14T12:01:54.829Z,1022.31
2019-05-14T12:03:00.763Z,1022.27
2019-05-14T12:04:08.806Z,1022.26
2019-05-14T12:05:10.699Z,1022.32
2019-05-14T12:06:19.309Z,1022.24
2019-05-14T12:07:18.768Z,1022.29
2019-05-14T12:08:18.836Z,1022.27
2019-05-14T12:09:38.900Z,1022.27
2019-05-14T12:10:32.754Z,1022.27
2019-05-14T12:11:38.742Z,1022.19
2019-05-14T12:12:43.822Z,1022.20
2019-05-14T12:13:48.704Z,1022.15
2019-05-14T12:14:58.244Z,1022.15
2019-05-14T12:16:05.047Z,1022.12
2019-05-14T12:17:09.456Z,1022.11
2019-05-14T12:18:10.377Z,1022.05
2019-05-14T12:19:18.748Z,1022.04
2019-05-14T12:20:32.008Z,1022.04
2019-05-14T12:21:31.908Z,1022.04
2019-05-14T12:22:34.267Z,1022.04
2019-05-14T12:23:35.703Z,1022.01
2019-05-14T12:24:45.954Z,1022.00
2019-05-14T12:25:53.128Z,1021.93
2019-05-14T12:26:58.583Z,1021.95
2019-05-14T12:28:02.155Z,1021.92
2019-05-14T12:29:11.077Z,1021.93
2019-05-14T12:30:16.205Z,1021.95
2019-05-14T12:31:14.054Z,1021.99
2019-05-14T12:32:30.050Z,1022.07
2019-05-14T12:33:34.778Z,1022.00
2019-05-14T12:34:49.205Z,1021.98
2019-05-14T12:35:40.498Z,1021.90
2019-05-14T12:36:44.703Z,1021.87
2019-05-14T12:37:58.529Z,1021.89
2019-05-14T12:38:55.395Z,1021.86
2019-05-14T12:40:02.440Z,1021.84
2019-05-14T12:41:19.076Z,1021.84
2019-05-14T12:42:12.505Z,1021.77
2019-05-14T12:43:20.790Z,1021.88
2019-05-14T12:44:37.222Z,1021.83
2019-05-14T12:45:35.660Z,1021.86
2019-05-14T12:46:42.424Z,1021.93
2019-05-14T12:47:40.073Z,1021.94
2019-05-14T12:48:59.011Z,1022.00
2019-05-14T12:50:02.512Z,1021.98
2019-05-14T12:50:55.757Z,1021.89
2019-05-14T12:52:17.791Z,1021.85
2019-05-14T12:53:11.336Z,1021.78
2019-05-14T12:54:14.416Z,1021.80
2019-05-14T12:55:21.691Z,1021.87
2019-05-14T12:56:24.065Z,1021.89
2019-05-14T12:57:30.193Z,1021.86
2019-05-14T12:58:33.595Z,1021.82
2019-05-14T12:59:43.533Z,1021.78
2019-05-14T13:00:48.750Z,1021.76
2019-05-14T13:01:50.718Z,1021.74
2019-05-14T13:02:59.528Z,1021.74
2019-05-14T13:03:59.232Z,1021.72
2019-05-14T13:05:09.679Z,1021.72
2019-05-14T13:06:14.608Z,1021.72
2019-05-14T13:07:24.541Z,1021.73
2019-05-14T13:08:23.738Z,1021.75
2019-05-14T13:09:43.811Z,1021.67
2019-05-14T13:10:43.710Z,1021.63
2019-05-14T13:11:44.738Z,1021.64
2019-05-14T13:12:50.891Z,1021.66
2019-05-14T13:13:53.970Z,1021.70
2019-05-14T13:15:01.759Z,1021.72
2019-05-14T13:16:04.853Z,1021.64
2019-05-14T13:17:01.877Z,1021.64
2019-05-14T13:18:19.700Z,1021.69
2019-05-14T13:19:28.496Z,1021.62